Terminal Aerodrome Forecast
Issued by NWS

Home | Current Version | Previous Version | Graphics & Text | Print | Product List | Glossary On
Versions: 1 2 3 4 5 6 7 8 9 10 11 12 13 14 15 16 17
359
FTUS42 KMHX 171120
TAFOAJ
TAF
KOAJ 171120Z 1712/1812 17005KT 6SM -SHRA VCTS BKN025CB
     FM171900 18010G16KT 4SM -TSRA OVC035CB
     FM172200 18010KT 6SM -SHRA VCTS BKN020CB
      AMD LTD TO CLD VIS AND WIND=

USA.gov is the U.S. government's official web portal to all federal, state and local government web resources and services.